Time;durP1;ratioP1;P1;durP2;ratioP2;P2;SDS_P1;SDS_P2;PMS_P1;PMS_P2;Temp;Humidity;BMP_temperature;BMP_pressure;BME280_temperature;BME280_humidity;BME280_pressure;Samples;Min_cycle;Max_cycle;Signal;HPM_P1;HPM_P2
2024/01/22 00:02:01;;;;;;;6.15;2.80;;;8.80;90.80;;;;;;5071614;28;20400;-34
2024/01/22 00:04:27;;;;;;;4.20;2.13;;;8.90;90.90;;;;;;5071559;28;20078;-35
2024/01/22 00:06:53;;;;;;;5.00;2.92;;;8.90;90.90;;;;;;5071341;28;20556;-36
2024/01/22 00:09:19;;;;;;;5.85;2.30;;;8.90;90.80;;;;;;5071783;28;20025;-35
2024/01/22 00:11:44;;;;;;;4.97;2.47;;;9.00;90.90;;;;;;5071213;28;20040;-35
2024/01/22 00:14:10;;;;;;;4.85;2.13;;;9.00;90.90;;;;;;5071706;28;20024;-35
2024/01/22 00:16:39;;;;;;;4.35;2.70;;;9.10;90.90;;;;;;5071610;28;20029;-34
2024/01/22 00:19:06;;;;;;;5.10;2.25;;;9.10;90.90;;;;;;5071515;28;20617;-35
2024/01/22 00:21:31;;;;;;;4.38;2.60;;;9.10;90.80;;;;;;5071328;28;20048;-35
2024/01/22 00:23:57;;;;;;;3.95;2.78;;;9.10;90.70;;;;;;5071339;28;20052;-36
2024/01/22 00:26:22;;;;;;;5.10;2.85;;;9.10;90.60;;;;;;5071438;28;20024;-36
2024/01/22 00:28:48;;;;;;;6.28;3.03;;;9.20;90.60;;;;;;5071373;28;20025;-36
2024/01/22 00:31:14;;;;;;;3.75;2.60;;;9.20;90.60;;;;;;5071392;28;20153;-35
2024/01/22 00:33:42;;;;;;;6.47;2.53;;;9.30;90.60;;;;;;5071315;28;20040;-36
2024/01/22 00:36:08;;;;;;;4.30;2.47;;;9.20;90.50;;;;;;5071247;28;20016;-36
2024/01/22 00:38:33;;;;;;;5.30;2.63;;;9.30;90.40;;;;;;5071472;28;20025;-35
2024/01/22 00:40:59;;;;;;;3.80;2.72;;;9.30;90.40;;;;;;5071566;28;20021;-38
2024/01/22 00:43:24;;;;;;;4.70;2.70;;;9.30;90.40;;;;;;5075059;28;20108;-35
2024/01/22 00:45:50;;;;;;;4.63;2.22;;;9.30;90.40;;;;;;5075363;28;20021;-36
2024/01/22 00:48:16;;;;;;;3.67;2.00;;;9.30;90.40;;;;;;5075139;28;20025;-36
2024/01/22 00:50:41;;;;;;;3.55;2.30;;;9.40;90.50;;;;;;5073533;28;20070;-35
2024/01/22 00:53:07;;;;;;;4.45;2.65;;;9.40;90.50;;;;;;5073633;28;20503;-36
2024/01/22 00:55:32;;;;;;;2.95;2.05;;;9.40;90.50;;;;;;5074881;28;20024;-35
2024/01/22 00:57:59;;;;;;;4.90;2.83;;;9.40;90.70;;;;;;5074939;28;20039;-36
2024/01/22 01:00:26;;;;;;;5.45;2.70;;;9.40;90.30;;;;;;5074593;28;20020;-36
2024/01/22 01:02:52;;;;;;;5.22;2.65;;;9.40;90.30;;;;;;5074494;28;20165;-36
2024/01/22 01:05:18;;;;;;;3.75;2.40;;;9.40;90.30;;;;;;5074747;28;20042;-37
2024/01/22 01:07:43;;;;;;;3.92;2.50;;;9.50;90.30;;;;;;5074544;28;20389;-34
2024/01/22 01:10:09;;;;;;;3.88;2.40;;;9.50;90.30;;;;;;5074597;28;20052;-36
2024/01/22 01:12:35;;;;;;;2.97;2.10;;;9.50;90.20;;;;;;5074647;28;20021;-36
2024/01/22 01:15:00;;;;;;;4.20;2.13;;;9.50;90.30;;;;;;5074706;28;20031;-37
2024/01/22 01:17:26;;;;;;;2.58;2.10;;;9.60;90.30;;;;;;5074310;28;20077;-35
2024/01/22 01:19:51;;;;;;;4.03;2.50;;;9.60;90.30;;;;;;5074688;28;20024;-36
2024/01/22 01:22:18;;;;;;;3.55;2.47;;;9.60;90.10;;;;;;5072793;28;20020;-35
2024/01/22 01:24:43;;;;;;;4.95;2.70;;;9.60;90.10;;;;;;5074242;28;20294;-35
2024/01/22 01:27:09;;;;;;;6.28;2.80;;;9.60;90.00;;;;;;5074295;28;20020;-36
2024/01/22 01:29:37;;;;;;;3.15;2.20;;;9.70;90.00;;;;;;5074042;28;20025;-34
2024/01/22 01:32:03;;;;;;;3.20;1.98;;;9.70;90.00;;;;;;5074313;28;20384;-36
2024/01/22 01:34:28;;;;;;;5.70;2.28;;;9.70;89.90;;;;;;5073935;28;20057;-37
2024/01/22 01:36:54;;;;;;;3.63;2.28;;;9.80;89.90;;;;;;5073979;28;20023;-36
2024/01/22 01:39:19;;;;;;;4.65;2.20;;;9.80;90.20;;;;;;5074063;28;20090;-36
2024/01/22 01:41:48;;;;;;;3.78;2.20;;;9.80;89.70;;;;;;5073905;28;20320;-36
2024/01/22 01:44:14;;;;;;;3.20;2.15;;;9.80;89.60;;;;;;5074280;28;20023;-37
2024/01/22 01:46:40;;;;;;;2.33;2.00;;;9.80;89.50;;;;;;5073926;28;20505;-37
2024/01/22 01:49:07;;;;;;;4.38;2.10;;;9.80;89.50;;;;;;5072618;28;20025;-36
2024/01/22 01:51:33;;;;;;;4.43;2.40;;;9.90;89.50;;;;;;5073961;28;20078;-35
2024/01/22 01:54:01;;;;;;;4.38;2.30;;;9.90;89.50;;;;;;5072741;28;20024;-37
2024/01/22 01:56:27;;;;;;;4.38;2.10;;;9.90;89.60;;;;;;5073735;28;20024;-38
2024/01/22 01:58:54;;;;;;;3.85;2.10;;;9.90;89.60;;;;;;5073793;28;20031;-37
2024/01/22 02:01:20;;;;;;;3.38;2.20;;;9.90;89.60;;;;;;5073493;28;20039;-36
2024/01/22 02:03:46;;;;;;;4.18;2.20;;;9.90;89.60;;;;;;5073524;28;20009;-35
2024/01/22 02:06:12;;;;;;;5.15;2.17;;;9.90;89.70;;;;;;5073810;28;20028;-34
2024/01/22 02:08:37;;;;;;;3.30;1.95;;;10.00;89.90;;;;;;5073353;28;20013;-35
2024/01/22 02:11:03;;;;;;;3.42;1.85;;;10.00;89.90;;;;;;5073298;28;20660;-34
2024/01/22 02:13:29;;;;;;;3.58;1.98;;;10.00;89.90;;;;;;5072279;28;20017;-35
2024/01/22 02:15:55;;;;;;;4.30;2.17;;;10.00;89.90;;;;;;5073332;28;20104;-35
2024/01/22 02:18:20;;;;;;;2.15;1.90;;;10.00;90.00;;;;;;5073352;28;20476;-35
2024/01/22 02:20:46;;;;;;;4.13;1.80;;;10.00;90.00;;;;;;5073288;28;20020;-34
2024/01/22 02:23:12;;;;;;;2.72;1.90;;;10.00;90.00;;;;;;5073228;28;20564;-34
2024/01/22 02:25:37;;;;;;;2.78;1.52;;;10.00;89.90;;;;;;5072139;28;20024;-33
2024/01/22 02:28:03;;;;;;;4.00;2.47;;;10.00;90.00;;;;;;5073000;28;20028;-34
2024/01/22 02:30:29;;;;;;;5.88;2.33;;;10.10;90.00;;;;;;5072980;28;20047;-35
2024/01/22 02:32:54;;;;;;;3.28;1.90;;;10.10;89.90;;;;;;5072929;28;20024;-35
2024/01/22 02:35:21;;;;;;;3.53;1.77;;;10.10;89.90;;;;;;5072869;28;20053;-36
2024/01/22 02:37:47;;;;;;;3.55;1.80;;;10.20;89.90;;;;;;5073022;28;20029;-36
2024/01/22 02:40:13;;;;;;;4.45;1.50;;;10.10;89.70;;;;;;5072897;28;20021;-35
2024/01/22 02:42:39;;;;;;;2.97;1.70;;;10.20;89.80;;;;;;5072680;28;20020;-35
2024/01/22 02:45:07;;;;;;;2.40;1.80;;;10.20;89.80;;;;;;5072712;28;20027;-34
2024/01/22 02:47:32;;;;;;;2.33;1.50;;;10.20;89.70;;;;;;5072628;28;20032;-35
2024/01/22 02:50:00;;;;;;;4.60;1.85;;;10.20;89.70;;;;;;5072466;28;20031;-35
2024/01/22 02:52:26;;;;;;;2.85;2.05;;;10.20;89.70;;;;;;5072555;28;20024;-35
2024/01/22 02:54:51;;;;;;;5.05;1.85;;;10.30;89.80;;;;;;5072530;28;20127;-34
2024/01/22 02:57:17;;;;;;;3.17;1.55;;;10.30;90.00;;;;;;5072422;28;20033;-37
2024/01/22 02:59:42;;;;;;;2.90;1.58;;;10.30;90.00;;;;;;5072619;28;20027;-35
2024/01/22 03:02:09;;;;;;;1.83;1.50;;;10.30;90.10;;;;;;5072119;28;20028;-36
2024/01/22 03:04:35;;;;;;;2.92;1.70;;;10.20;90.20;;;;;;5072579;28;20044;-36
2024/01/22 03:07:00;;;;;;;3.58;1.70;;;10.20;90.30;;;;;;5072611;28;20189;-35
2024/01/22 03:09:26;;;;;;;2.80;1.80;;;10.20;90.30;;;;;;5072639;28;20020;-35
2024/01/22 03:11:51;;;;;;;2.70;1.50;;;10.20;90.50;;;;;;5072169;28;20012;-35
2024/01/22 03:14:17;;;;;;;2.35;1.38;;;10.10;90.50;;;;;;5072134;28;20420;-35
2024/01/22 03:16:43;;;;;;;1.98;1.50;;;10.10;90.60;;;;;;5072109;28;20024;-35
2024/01/22 03:19:08;;;;;;;3.63;1.50;;;10.10;90.60;;;;;;5072165;28;20016;-36
2024/01/22 03:21:34;;;;;;;1.70;1.50;;;10.10;90.70;;;;;;5072021;28;20377;-36
2024/01/22 03:24:00;;;;;;;3.92;1.85;;;10.10;90.80;;;;;;5070879;28;20389;-34
2024/01/22 03:26:25;;;;;;;3.78;1.83;;;10.10;91.00;;;;;;5071830;28;20021;-34
2024/01/22 03:28:51;;;;;;;2.10;1.40;;;10.10;91.00;;;;;;5071860;28;20055;-36
2024/01/22 03:31:21;;;;;;;3.30;1.80;;;10.10;91.00;;;;;;5071781;28;20070;-34
2024/01/22 03:33:47;;;;;;;2.08;1.30;;;10.10;91.10;;;;;;5071744;28;20053;-34
2024/01/22 03:36:12;;;;;;;2.60;1.30;;;10.10;91.10;;;;;;5072126;28;20016;-34
2024/01/22 03:38:38;;;;;;;1.60;1.35;;;10.10;91.10;;;;;;5070526;28;20028;-35
2024/01/22 03:41:04;;;;;;;2.13;1.40;;;10.20;91.20;;;;;;5071981;28;20384;-35
2024/01/22 03:43:29;;;;;;;2.30;1.60;;;10.20;91.20;;;;;;5071864;28;20021;-36
2024/01/22 03:45:55;;;;;;;2.03;1.52;;;10.20;91.20;;;;;;5071670;28;20028;-36
2024/01/22 03:48:21;;;;;;;1.63;1.35;;;10.20;91.30;;;;;;5071826;28;20388;-36
2024/01/22 03:50:46;;;;;;;2.55;1.80;;;10.20;91.30;;;;;;5071766;28;20392;-35
2024/01/22 03:53:12;;;;;;;3.42;1.60;;;10.20;91.40;;;;;;5071673;28;20021;-34
2024/01/22 03:55:37;;;;;;;2.22;1.23;;;10.20;91.40;;;;;;5071998;28;20083;-34
2024/01/22 03:58:03;;;;;;;2.00;1.50;;;10.20;91.40;;;;;;5071616;28;20035;-33
2024/01/22 04:00:28;;;;;;;1.83;1.50;;;10.20;91.40;;;;;;5071763;28;20032;-34
2024/01/22 04:02:54;;;;;;;2.10;1.48;;;10.20;91.50;;;;;;5071495;28;20063;-35
2024/01/22 04:05:19;;;;;;;2.03;1.50;;;10.20;91.70;;;;;;5071491;28;20036;-35
2024/01/22 04:07:45;;;;;;;2.15;1.52;;;10.20;91.90;;;;;;5071473;28;20413;-35
2024/01/22 04:10:10;;;;;;;2.47;1.65;;;10.10;92.00;;;;;;5070303;28;20021;-35
2024/01/22 04:12:37;;;;;;;2.15;1.40;;;10.10;92.10;;;;;;5071677;28;20082;-34
2024/01/22 04:15:04;;;;;;;3.38;1.83;;;10.10;92.10;;;;;;5071459;28;20029;-34
2024/01/22 04:17:30;;;;;;;1.92;1.63;;;10.10;92.30;;;;;;5074822;28;20020;-35
2024/01/22 04:19:55;;;;;;;2.00;1.40;;;10.10;92.40;;;;;;5075426;28;20145;-35
2024/01/22 04:22:21;;;;;;;1.30;1.10;;;10.10;92.50;;;;;;5075798;28;20021;-35
2024/01/22 04:24:47;;;;;;;2.25;1.42;;;10.10;92.50;;;;;;5075397;28;20388;-34
2024/01/22 04:27:13;;;;;;;3.00;1.40;;;10.10;92.60;;;;;;5075262;28;20040;-33
2024/01/22 04:29:38;;;;;;;1.63;1.30;;;10.10;92.80;;;;;;5075493;28;20381;-40
2024/01/22 04:32:04;;;;;;;2.47;1.50;;;10.10;92.90;;;;;;5075228;28;20024;-34
2024/01/22 04:34:30;;;;;;;2.03;1.30;;;10.20;92.90;;;;;;5075143;28;20571;-35
2024/01/22 04:36:55;;;;;;;1.38;1.20;;;10.20;92.90;;;;;;5075113;28;20160;-35
2024/01/22 04:39:23;;;;;;;1.90;1.33;;;10.20;93.10;;;;;;5075185;28;20081;-36
2024/01/22 04:41:49;;;;;;;1.50;1.40;;;10.20;93.10;;;;;;5075123;28;20025;-36
2024/01/22 04:44:14;;;;;;;4.22;1.50;;;10.20;93.00;;;;;;5075124;28;20030;-35
2024/01/22 04:46:40;;;;;;;4.00;1.40;;;10.20;93.10;;;;;;5075132;28;20028;-36
2024/01/22 04:49:05;;;;;;;2.08;1.40;;;10.20;93.20;;;;;;5075107;28;20024;-35
2024/01/22 04:51:31;;;;;;;2.03;1.50;;;10.20;93.30;;;;;;5074871;28;20392;-35
2024/01/22 04:53:56;;;;;;;2.47;1.23;;;10.30;93.40;;;;;;5074929;28;20405;-35
2024/01/22 04:56:22;;;;;;;3.67;1.15;;;10.30;93.40;;;;;;5075030;28;20465;-35
2024/01/22 04:58:47;;;;;;;1.15;1.05;;;10.30;93.40;;;;;;5074612;28;20545;-36
2024/01/22 05:01:13;;;;;;;2.75;1.52;;;10.40;93.40;;;;;;5074670;28;20028;-34
2024/01/22 05:03:38;;;;;;;1.55;1.23;;;10.40;93.50;;;;;;5074692;28;20017;-36
2024/01/22 05:06:04;;;;;;;1.25;1.10;;;10.40;93.50;;;;;;5074617;28;20036;-33
2024/01/22 05:08:30;;;;;;;2.95;1.50;;;10.50;93.50;;;;;;5073742;28;20027;-35
2024/01/22 05:10:55;;;;;;;1.40;1.02;;;10.50;93.50;;;;;;5074466;28;20421;-34
2024/01/22 05:13:22;;;;;;;1.70;1.10;;;10.50;93.50;;;;;;5074653;28;20025;-36
2024/01/22 05:15:48;;;;;;;2.25;1.13;;;10.50;93.50;;;;;;5074527;28;20034;-34
2024/01/22 05:18:13;;;;;;;1.27;1.17;;;10.50;93.50;;;;;;5074674;28;20016;-34
2024/01/22 05:20:39;;;;;;;1.45;1.10;;;10.50;93.50;;;;;;5074468;28;20066;-34
2024/01/22 05:23:05;;;;;;;2.90;1.30;;;10.50;93.50;;;;;;5074557;28;20312;-35
2024/01/22 05:25:31;;;;;;;4.38;1.58;;;10.50;93.90;;;;;;5074206;28;20542;-35
2024/01/22 05:27:56;;;;;;;1.92;1.17;;;10.60;93.60;;;;;;5073956;28;20032;-34
2024/01/22 05:30:23;;;;;;;2.90;1.20;;;10.60;93.70;;;;;;5074132;28;20099;-37
2024/01/22 05:32:49;;;;;;;2.67;1.10;;;10.60;93.60;;;;;;5074499;28;20381;-34
2024/01/22 05:35:15;;;;;;;1.08;0.98;;;10.60;93.60;;;;;;5074539;28;20217;-34
2024/01/22 05:37:40;;;;;;;2.33;1.30;;;10.70;93.60;;;;;;5074316;28;20032;-35
2024/01/22 05:40:13;;;;;;;1.48;0.95;;;10.70;93.70;;;;;;5074073;28;20024;-35
2024/01/22 05:42:39;;;;;;;3.08;1.45;;;10.70;93.70;;;;;;5074143;28;20028;-36
2024/01/22 05:45:05;;;;;;;1.55;1.10;;;10.70;93.70;;;;;;5074051;28;20477;-35
2024/01/22 05:47:31;;;;;;;1.67;1.10;;;10.70;93.70;;;;;;5073847;28;20028;-35
2024/01/22 05:49:56;;;;;;;1.30;0.90;;;10.80;93.80;;;;;;5074235;28;20382;-36
2024/01/22 05:52:22;;;;;;;2.38;1.25;;;10.80;93.80;;;;;;5073751;28;20021;-36
2024/01/22 05:54:48;;;;;;;2.28;1.10;;;10.80;93.90;;;;;;5074021;28;20025;-34
2024/01/22 05:57:13;;;;;;;1.50;1.00;;;10.80;93.90;;;;;;5073851;28;20598;-35
2024/01/22 05:59:39;;;;;;;1.48;1.00;;;10.90;94.00;;;;;;5074036;28;20374;-36
2024/01/22 06:02:05;;;;;;;1.95;0.90;;;10.90;94.30;;;;;;5073360;28;20021;-35
2024/01/22 06:04:31;;;;;;;1.38;0.98;;;10.90;94.00;;;;;;5072350;28;20048;-34
2024/01/22 06:06:57;;;;;;;1.98;1.00;;;10.90;94.00;;;;;;5073403;28;20091;-39
2024/01/22 06:09:22;;;;;;;0.93;0.80;;;11.00;94.20;;;;;;5073636;28;20032;-35
2024/01/22 06:11:48;;;;;;;3.42;0.70;;;11.00;94.00;;;;;;5073390;28;20100;-35
2024/01/22 06:14:13;;;;;;;1.30;0.85;;;11.00;93.90;;;;;;5073659;28;20025;-35
2024/01/22 06:16:39;;;;;;;6.72;1.00;;;11.10;94.00;;;;;;5073501;28;20415;-35
2024/01/22 06:19:05;;;;;;;1.27;0.70;;;11.10;93.90;;;;;;5073251;28;20023;-35
2024/01/22 06:21:30;;;;;;;1.95;0.95;;;11.20;93.90;;;;;;5073117;28;20025;-37
2024/01/22 06:23:57;;;;;;;3.20;1.10;;;11.20;93.80;;;;;;5073108;28;20418;-34
2024/01/22 06:26:23;;;;;;;1.10;0.80;;;11.30;93.80;;;;;;5073206;28;20025;-35
2024/01/22 06:28:49;;;;;;;1.40;0.90;;;11.30;93.70;;;;;;5073288;28;20021;-35
2024/01/22 06:31:15;;;;;;;2.63;1.00;;;11.40;93.70;;;;;;5071709;28;20043;-35
2024/01/22 06:33:40;;;;;;;2.03;0.80;;;11.40;93.60;;;;;;5071584;28;20052;-35
2024/01/22 06:36:06;;;;;;;2.97;0.65;;;11.50;93.50;;;;;;5072907;28;20104;-34
2024/01/22 06:38:32;;;;;;;1.92;0.88;;;11.50;93.50;;;;;;5072521;28;20062;-36
2024/01/22 06:40:58;;;;;;;2.33;0.73;;;11.50;93.40;;;;;;5072829;28;20020;-35
2024/01/22 06:43:24;;;;;;;2.05;0.90;;;11.60;93.40;;;;;;5073255;28;20484;-36
2024/01/22 06:45:50;;;;;;;1.63;0.80;;;11.60;93.30;;;;;;5073176;28;20047;-36
2024/01/22 06:48:16;;;;;;;1.95;0.80;;;11.60;93.30;;;;;;5072821;28;20111;-34
2024/01/22 06:50:41;;;;;;;1.45;0.70;;;11.60;93.40;;;;;;5072868;28;20503;-35
2024/01/22 06:53:07;;;;;;;2.80;0.80;;;11.60;93.40;;;;;;5072651;28;20025;-34
2024/01/22 06:55:32;;;;;;;3.35;0.90;;;11.60;93.60;;;;;;5072696;28;20028;-35
2024/01/22 06:57:58;;;;;;;3.55;0.88;;;11.60;93.60;;;;;;5072549;28;20051;-35
2024/01/22 07:00:24;;;;;;;3.33;0.93;;;11.50;93.70;;;;;;5072460;28;20104;-34
2024/01/22 07:02:49;;;;;;;3.33;0.90;;;11.50;93.60;;;;;;5072369;28;20135;-35
2024/01/22 07:05:16;;;;;;;4.18;1.00;;;11.50;93.70;;;;;;5072415;28;20059;-34
2024/01/22 07:07:42;;;;;;;2.92;1.08;;;11.50;93.70;;;;;;5072701;28;20036;-35
2024/01/22 07:10:08;;;;;;;2.50;0.90;;;11.50;93.70;;;;;;5072352;28;20389;-35
2024/01/22 07:12:34;;;;;;;2.42;0.70;;;11.50;93.70;;;;;;5072352;28;20032;-34
2024/01/22 07:15:04;;;;;;;1.98;0.85;;;11.50;93.80;;;;;;5072594;28;20480;-35
2024/01/22 07:17:30;;;;;;;6.32;1.10;;;11.50;93.80;;;;;;5072160;28;20075;-37
2024/01/22 07:19:56;;;;;;;1.67;0.50;;;11.50;93.90;;;;;;5072171;28;20020;-35
2024/01/22 07:22:22;;;;;;;2.95;0.80;;;11.50;93.80;;;;;;5072180;28;20435;-36
2024/01/22 07:24:47;;;;;;;3.10;0.88;;;11.50;93.80;;;;;;5071940;28;20035;-36
2024/01/22 07:27:13;;;;;;;3.25;0.90;;;11.50;93.80;;;;;;5072155;28;20020;-34
2024/01/22 07:29:38;;;;;;;4.82;1.10;;;11.60;93.80;;;;;;5071774;28;20078;-34
2024/01/22 07:32:04;;;;;;;5.45;1.17;;;11.50;93.70;;;;;;5071760;28;20107;-33
2024/01/22 07:34:30;;;;;;;5.10;1.20;;;11.60;93.70;;;;;;5071776;28;20047;-34
2024/01/22 07:36:55;;;;;;;4.35;1.40;;;11.50;93.60;;;;;;5071795;28;20091;-34
2024/01/22 07:39:21;;;;;;;6.30;1.20;;;11.60;93.60;;;;;;5072238;28;20066;-35
2024/01/22 07:41:46;;;;;;;5.43;1.60;;;11.60;93.50;;;;;;5071701;28;20029;-34
2024/01/22 07:44:12;;;;;;;8.27;1.70;;;11.60;93.50;;;;;;5072106;28;20024;-35
2024/01/22 07:46:38;;;;;;;7.53;1.60;;;11.60;93.40;;;;;;5071839;28;20048;-35
2024/01/22 07:49:04;;;;;;;6.78;1.60;;;11.60;93.30;;;;;;5072255;28;20081;-35
2024/01/22 07:51:30;;;;;;;6.88;1.73;;;11.60;93.30;;;;;;5070786;28;20366;-35
2024/01/22 07:53:55;;;;;;;6.18;1.35;;;11.70;93.20;;;;;;5071775;28;20024;-34
2024/01/22 07:56:21;;;;;;;6.85;1.50;;;11.70;93.10;;;;;;5071670;28;20074;-35
2024/01/22 07:58:47;;;;;;;3.92;1.30;;;11.70;93.10;;;;;;5071917;28;20040;-35
2024/01/22 08:01:12;;;;;;;7.20;1.45;;;11.70;93.00;;;;;;5071475;28;20484;-34
2024/01/22 08:03:38;;;;;;;4.50;1.63;;;11.70;93.00;;;;;;5071850;28;20427;-34
2024/01/22 08:06:04;;;;;;;4.05;1.20;;;11.70;93.00;;;;;;5071891;28;20025;-34
2024/01/22 08:08:30;;;;;;;2.92;1.40;;;11.70;93.00;;;;;;5071642;28;20489;-35
2024/01/22 08:10:56;;;;;;;6.35;1.42;;;11.70;93.00;;;;;;5071463;28;20173;-33
2024/01/22 08:13:22;;;;;;;8.73;1.40;;;11.70;93.00;;;;;;5071812;28;20105;-34
2024/01/22 08:15:48;;;;;;;8.18;1.70;;;11.70;93.00;;;;;;5071753;28;20431;-35
2024/01/22 08:18:14;;;;;;;8.25;1.77;;;11.70;93.00;;;;;;5071507;28;20389;-35
2024/01/22 08:20:40;;;;;;;9.30;1.70;;;11.70;93.00;;;;;;5071690;28;20112;-33
2024/01/22 08:23:07;;;;;;;10.15;2.00;;;11.70;93.00;;;;;;5071428;28;20429;-34
2024/01/22 08:25:33;;;;;;;6.20;1.92;;;11.70;93.10;;;;;;5071338;28;20099;-35
2024/01/22 08:27:59;;;;;;;7.97;1.73;;;11.70;93.10;;;;;;5071036;28;20108;-38
2024/01/22 08:30:25;;;;;;;6.50;1.65;;;11.70;93.10;;;;;;5071447;28;20388;-37
2024/01/22 08:32:51;;;;;;;7.65;1.80;;;11.70;93.10;;;;;;5071558;28;20029;-38
2024/01/22 08:35:19;;;;;;;7.13;1.50;;;11.70;93.10;;;;;;5071275;28;20527;-36
2024/01/22 08:37:50;;;;;;;5.20;1.55;;;11.70;93.20;;;;;;5071594;28;20059;-38
2024/01/22 08:40:21;;;;;;;6.82;1.70;;;11.70;93.20;;;;;;5071677;28;20571;-43
2024/01/22 08:42:55;;;;;;;10.98;2.13;;;11.70;93.20;;;;;;5071126;28;20052;-36
2024/01/22 08:45:21;;;;;;;5.85;1.65;;;11.70;93.20;;;;;;5071578;28;20496;-40
2024/01/22 08:47:48;;;;;;;5.68;1.65;;;11.70;93.20;;;;;;5069852;28;20024;-36
2024/01/22 08:50:18;;;;;;;7.80;1.83;;;11.70;93.30;;;;;;5071303;28;20024;-38
2024/01/22 08:52:49;;;;;;;3.20;1.50;;;11.70;93.30;;;;;;5071127;28;20021;-36
2024/01/22 08:55:15;;;;;;;8.07;1.90;;;11.70;93.20;;;;;;5071198;28;20424;-38
2024/01/22 08:57:42;;;;;;;8.43;1.77;;;11.70;93.30;;;;;;5071208;28;20052;-38
2024/01/22 09:00:11;;;;;;;6.93;1.58;;;11.80;93.30;;;;;;5071374;28;20070;-37
2024/01/22 09:02:39;;;;;;;4.93;1.70;;;11.80;93.20;;;;;;5072645;28;20017;-37
2024/01/22 09:05:09;;;;;;;4.93;1.60;;;11.80;93.20;;;;;;5074829;28;21323;-38
2024/01/22 09:07:35;;;;;;;4.57;1.83;;;11.80;93.20;;;;;;5075109;28;20029;-38
2024/01/22 09:10:08;;;;;;;6.00;1.83;;;11.80;93.20;;;;;;5074589;28;20436;-39
2024/01/22 09:12:34;;;;;;;9.23;2.10;;;11.80;93.20;;;;;;5074569;28;20029;-38
2024/01/22 09:15:01;;;;;;;11.48;2.38;;;11.80;93.20;;;;;;5074809;28;20047;-35
2024/01/22 09:17:27;;;;;;;5.53;1.90;;;11.80;93.20;;;;;;5074398;28;20468;-35
2024/01/22 09:19:52;;;;;;;12.20;2.65;;;11.80;93.20;;;;;;5072867;28;20075;-37
2024/01/22 09:22:19;;;;;;;13.13;2.78;;;11.80;93.30;;;;;;5074342;28;20047;-36
2024/01/22 09:24:45;;;;;;;7.25;2.28;;;11.80;93.30;;;;;;5074610;28;20100;-34
2024/01/22 09:27:11;;;;;;;9.02;2.72;;;11.80;93.30;;;;;;5074196;28;20025;-35
2024/01/22 09:29:36;;;;;;;10.05;2.63;;;11.70;93.30;;;;;;5074125;28;20033;-34
2024/01/22 09:32:02;;;;;;;7.43;2.10;;;11.80;93.30;;;;;;5074029;28;20024;-34
2024/01/22 09:34:28;;;;;;;7.90;1.90;;;11.80;93.30;;;;;;5074189;28;20052;-35
2024/01/22 09:36:54;;;;;;;6.72;2.15;;;11.80;93.30;;;;;;5074221;28;20385;-35
2024/01/22 09:39:20;;;;;;;5.80;2.10;;;11.80;93.30;;;;;;5074155;28;20194;-34
2024/01/22 09:41:46;;;;;;;11.88;3.00;;;11.80;93.40;;;;;;5074213;28;20472;-35
2024/01/22 09:44:12;;;;;;;5.10;2.08;;;11.70;93.70;;;;;;5074419;28;20385;-35
2024/01/22 09:46:39;;;;;;;6.82;2.70;;;11.60;94.00;;;;;;5074126;28;20103;-34
2024/01/22 09:49:05;;;;;;;11.02;2.60;;;11.40;94.10;;;;;;5074047;28;20558;-35
2024/01/22 09:51:34;;;;;;;7.72;1.90;;;11.30;94.40;;;;;;5073774;28;20059;-35
2024/01/22 09:54:10;;;;;;;8.95;2.10;;;11.10;94.10;;;;;;5073898;28;20035;-33
2024/01/22 09:56:36;;;;;;;8.57;2.35;;;11.00;94.10;;;;;;5073938;28;20016;-33
2024/01/22 09:59:15;;;;;;;12.65;2.40;;;10.80;94.10;;;;;;5073999;28;20024;-34
2024/01/22 10:01:42;;;;;;;9.55;2.00;;;10.60;94.20;;;;;;5073872;28;20039;-34
2024/01/22 10:04:10;;;;;;;12.18;2.22;;;10.50;94.30;;;;;;5074051;28;20028;-33
2024/01/22 10:06:36;;;;;;;8.20;2.15;;;10.40;94.40;;;;;;5073610;28;20385;-34
2024/01/22 10:09:02;;;;;;;10.32;2.25;;;10.30;94.40;;;;;;5073927;28;20074;-36
2024/01/22 10:11:30;;;;;;;6.18;1.50;;;10.30;94.50;;;;;;5073443;28;20025;-33
2024/01/22 10:13:56;;;;;;;10.27;2.13;;;10.30;94.60;;;;;;5072840;28;20028;-32
2024/01/22 10:16:26;;;;;;;10.07;2.05;;;10.20;94.60;;;;;;5073605;28;20023;-35
2024/01/22 10:18:56;;;;;;;12.07;2.28;;;10.20;94.60;;;;;;5073723;28;20017;-34
2024/01/22 10:21:22;;;;;;;7.68;2.03;;;10.20;94.70;;;;;;5073288;28;20031;-34
2024/01/22 10:23:56;;;;;;;10.73;2.30;;;10.20;94.70;;;;;;5073310;28;20025;-33
2024/01/22 10:26:22;;;;;;;11.77;2.20;;;10.20;94.70;;;;;;5073600;28;20021;-34
2024/01/22 10:28:48;;;;;;;6.80;1.85;;;10.20;94.80;;;;;;5073248;28;20017;-34
2024/01/22 10:31:13;;;;;;;9.13;1.92;;;10.20;94.70;;;;;;5073245;28;20017;-34
2024/01/22 10:33:39;;;;;;;12.50;2.20;;;10.20;94.70;;;;;;5072995;28;20044;-33
2024/01/22 10:36:17;;;;;;;10.25;2.03;;;10.20;94.70;;;;;;5073081;28;20025;-34
2024/01/22 10:38:45;;;;;;;16.85;2.58;;;10.20;94.70;;;;;;5073045;28;20029;-34
2024/01/22 10:41:21;;;;;;;13.13;2.53;;;10.20;94.70;;;;;;5072862;28;20020;-35
2024/01/22 10:43:49;;;;;;;9.10;1.83;;;10.20;94.60;;;;;;5073257;28;20465;-34
2024/01/22 10:46:17;;;;;;;13.18;2.10;;;10.20;94.60;;;;;;5071673;28;20078;-35
2024/01/22 10:48:44;;;;;;;12.32;2.30;;;10.20;94.60;;;;;;5072858;28;20090;-35
2024/01/22 10:51:10;;;;;;;10.60;2.35;;;10.20;94.60;;;;;;5071696;28;20036;-34
2024/01/22 10:53:37;;;;;;;15.68;2.40;;;10.20;94.60;;;;;;5072869;28;20033;-34
2024/01/22 10:56:11;;;;;;;13.38;2.60;;;10.20;94.40;;;;;;5072964;28;20485;-35
2024/01/22 10:58:41;;;;;;;11.60;2.65;;;10.20;94.40;;;;;;5072663;28;20071;-35
2024/01/22 11:01:14;;;;;;;10.80;2.70;;;10.10;94.40;;;;;;5072448;28;20056;-34
2024/01/22 11:03:48;;;;;;;9.13;2.25;;;10.10;94.40;;;;;;5072610;28;20086;-35
2024/01/22 11:06:21;;;;;;;14.88;3.17;;;10.10;94.40;;;;;;5072862;28;20411;-34
2024/01/22 11:08:49;;;;;;;17.92;2.95;;;10.10;94.40;;;;;;5072751;28;20034;-34
2024/01/22 11:11:21;;;;;;;12.13;2.63;;;10.10;94.30;;;;;;5072580;28;20483;-35
2024/01/22 11:13:51;;;;;;;14.30;3.03;;;10.10;94.40;;;;;;5072285;28;20028;-34
2024/01/22 11:16:20;;;;;;;15.98;3.30;;;10.10;94.40;;;;;;5072648;28;20028;-34
2024/01/22 11:19:02;;;;;;;15.52;2.60;;;10.20;94.40;;;;;;5072669;28;20031;-36
2024/01/22 11:21:33;;;;;;;13.40;2.90;;;10.20;94.20;;;;;;5072074;28;20036;-34
2024/01/22 11:24:10;;;;;;;19.77;3.67;;;10.30;94.20;;;;;;5072464;28;20017;-34
2024/01/22 11:26:44;;;;;;;15.90;3.47;;;10.30;94.10;;;;;;5072139;28;20507;-33
2024/01/22 11:29:10;;;;;;;;;;;10.30;93.90;;;;;;5072348;28;20379;-36
2024/01/22 11:31:37;;;;;;;18.58;3.75;;;10.30;93.70;;;;;;5072297;28;19931;-35
2024/01/22 11:34:05;;;;;;;16.65;3.40;;;10.30;93.70;;;;;;5072026;28;20094;-35
2024/01/22 11:36:55;;;;;;;19.92;4.22;;;10.30;93.70;;;;;;5070562;28;20031;-33
2024/01/22 11:39:39;;;;;;;21.90;4.20;;;10.30;93.50;;;;;;5072328;28;20424;-34
2024/01/22 11:42:20;;;;;;;19.67;3.78;;;10.30;93.10;;;;;;5071997;28;20021;-35
2024/01/22 11:44:49;;;;;;;16.70;4.40;;;10.30;93.10;;;;;;5072024;28;20069;-35
2024/01/22 11:47:16;;;;;;;21.27;4.35;;;10.40;92.90;;;;;;5072021;28;20111;-36
2024/01/22 11:49:42;;;;;;;25.48;4.65;;;10.40;92.80;;;;;;5071792;28;20031;-34
2024/01/22 11:52:18;;;;;;;23.50;4.32;;;10.40;92.80;;;;;;5071971;28;20526;-34
2024/01/22 11:54:53;;;;;;;20.90;4.53;;;10.50;92.80;;;;;;5072011;28;20042;-35
2024/01/22 11:57:19;;;;;;;24.48;4.70;;;10.50;92.10;;;;;;5071878;28;20116;-34
2024/01/22 11:59:58;;;;;;;21.67;5.10;;;10.60;92.20;;;;;;5072089;28;20472;-36
2024/01/22 12:02:23;;;;;;;23.67;5.05;;;10.60;92.10;;;;;;5070338;28;20059;-34
2024/01/22 12:04:59;;;;;;;20.05;3.75;;;10.70;91.70;;;;;;5071546;28;20052;-34
2024/01/22 12:07:34;;;;;;;19.73;4.13;;;10.70;91.60;;;;;;5071739;28;20057;-36
2024/01/22 12:10:00;;;;;;;27.25;5.32;;;10.70;91.60;;;;;;5071673;28;20020;-35
2024/01/22 12:12:26;;;;;;;28.92;4.47;;;10.70;91.30;;;;;;5071938;28;20380;-35
2024/01/22 12:14:56;;;;;;;23.90;4.57;;;10.70;90.90;;;;;;5071633;28;20024;-35
2024/01/22 12:17:22;;;;;;;17.90;4.00;;;10.80;90.80;;;;;;5071595;28;20056;-36
2024/01/22 12:19:54;;;;;;;16.40;3.80;;;10.70;90.60;;;;;;5071575;28;20051;-34
2024/01/22 12:22:23;;;;;;;24.63;5.20;;;10.70;90.80;;;;;;5071699;28;20024;-35
2024/01/22 12:25:08;;;;;;;25.27;4.68;;;10.80;90.40;;;;;;5071644;28;20067;-34
2024/01/22 12:27:35;;;;;;;20.63;4.22;;;10.80;90.30;;;;;;5071511;28;20162;-35
2024/01/22 12:30:07;;;;;;;25.10;4.57;;;10.90;90.30;;;;;;5070407;28;20024;-35
2024/01/22 12:32:35;;;;;;;26.98;4.68;;;10.90;90.20;;;;;;5071862;28;20017;-34
2024/01/22 12:35:01;;;;;;;21.90;4.15;;;10.90;89.50;;;;;;5071191;28;20083;-34
2024/01/22 12:37:32;;;;;;;26.48;5.20;;;11.00;89.90;;;;;;5072458;28;20071;-35
2024/01/22 12:40:16;;;;;;;26.83;5.38;;;11.00;89.20;;;;;;5075160;28;20031;-42
2024/01/22 12:42:47;;;;;;;24.88;5.10;;;11.00;88.60;;;;;;5075124;28;20020;-34
2024/01/22 12:45:14;;;;;;;21.65;4.38;;;11.00;88.60;;;;;;5075144;28;20024;-35